sensor_id;sensor_type;location;lat;lon;timestamp;P1;durP1;ratioP1;P2;durP2;ratioP2
5117;SDS011;2578;51.622;7.046;2022-08-21T00:00:39;6.93;;;1.80;;
5117;SDS011;2578;51.622;7.046;2022-08-21T00:03:06;6.97;;;1.87;;
5117;SDS011;2578;51.622;7.046;2022-08-21T00:05:36;6.97;;;1.80;;
5117;SDS011;2578;51.622;7.046;2022-08-21T00:08:04;6.93;;;1.80;;
5117;SDS011;2578;51.622;7.046;2022-08-21T00:10:30;6.97;;;1.80;;
5117;SDS011;2578;51.622;7.046;2022-08-21T00:12:57;7.00;;;1.80;;
5117;SDS011;2578;51.622;7.046;2022-08-21T00:15:24;7.03;;;1.80;;
5117;SDS011;2578;51.622;7.046;2022-08-21T00:17:53;7.05;;;2.03;;
5117;SDS011;2578;51.622;7.046;2022-08-21T00:20:20;7.03;;;1.90;;
5117;SDS011;2578;51.622;7.046;2022-08-21T00:22:46;7.03;;;1.83;;
5117;SDS011;2578;51.622;7.046;2022-08-21T00:25:13;7.00;;;1.80;;
5117;SDS011;2578;51.622;7.046;2022-08-21T00:27:39;7.10;;;1.90;;
5117;SDS011;2578;51.622;7.046;2022-08-21T00:30:07;7.10;;;2.00;;
5117;SDS011;2578;51.622;7.046;2022-08-21T00:32:35;6.93;;;1.90;;
5117;SDS011;2578;51.622;7.046;2022-08-21T00:35:03;7.10;;;1.90;;
5117;SDS011;2578;51.622;7.046;2022-08-21T00:37:33;6.85;;;1.90;;
5117;SDS011;2578;51.622;7.046;2022-08-21T00:39:59;6.97;;;1.90;;
5117;SDS011;2578;51.622;7.046;2022-08-21T00:42:26;7.10;;;1.80;;
5117;SDS011;2578;51.622;7.046;2022-08-21T00:44:53;7.10;;;1.80;;
5117;SDS011;2578;51.622;7.046;2022-08-21T00:47:19;7.10;;;1.80;;
5117;SDS011;2578;51.622;7.046;2022-08-21T00:49:45;7.07;;;1.70;;
5117;SDS011;2578;51.622;7.046;2022-08-21T00:52:12;7.10;;;1.70;;
5117;SDS011;2578;51.622;7.046;2022-08-21T00:54:42;7.10;;;1.70;;
5117;SDS011;2578;51.622;7.046;2022-08-21T00:57:13;7.13;;;1.70;;
5117;SDS011;2578;51.622;7.046;2022-08-21T00:59:50;7.07;;;1.70;;
5117;SDS011;2578;51.622;7.046;2022-08-21T01:02:20;7.13;;;1.80;;
5117;SDS011;2578;51.622;7.046;2022-08-21T01:04:45;7.00;;;1.80;;
5117;SDS011;2578;51.622;7.046;2022-08-21T01:07:12;7.17;;;1.90;;
5117;SDS011;2578;51.622;7.046;2022-08-21T01:09:38;7.17;;;1.80;;
5117;SDS011;2578;51.622;7.046;2022-08-21T01:12:04;7.07;;;1.90;;
5117;SDS011;2578;51.622;7.046;2022-08-21T01:14:31;7.20;;;1.90;;
5117;SDS011;2578;51.622;7.046;2022-08-21T01:16:57;7.17;;;1.87;;
5117;SDS011;2578;51.622;7.046;2022-08-21T01:19:24;6.97;;;1.90;;
5117;SDS011;2578;51.622;7.046;2022-08-21T01:21:50;7.20;;;1.90;;
5117;SDS011;2578;51.622;7.046;2022-08-21T01:24:16;7.13;;;1.80;;
5117;SDS011;2578;51.622;7.046;2022-08-21T01:26:42;7.18;;;2.00;;
5117;SDS011;2578;51.622;7.046;2022-08-21T01:29:14;7.17;;;1.80;;
5117;SDS011;2578;51.622;7.046;2022-08-21T01:31:50;7.23;;;1.80;;
5117;SDS011;2578;51.622;7.046;2022-08-21T01:34:16;7.17;;;1.80;;
5117;SDS011;2578;51.622;7.046;2022-08-21T01:36:43;6.93;;;1.80;;
5117;SDS011;2578;51.622;7.046;2022-08-21T01:39:11;16.40;;;4.80;;
5117;SDS011;2578;51.622;7.046;2022-08-21T01:41:37;6.90;;;1.80;;
5117;SDS011;2578;51.622;7.046;2022-08-21T01:44:03;7.10;;;1.70;;
5117;SDS011;2578;51.622;7.046;2022-08-21T01:46:28;7.20;;;1.60;;
5117;SDS011;2578;51.622;7.046;2022-08-21T01:48:54;7.20;;;1.80;;
5117;SDS011;2578;51.622;7.046;2022-08-21T01:51:20;7.27;;;1.67;;
5117;SDS011;2578;51.622;7.046;2022-08-21T01:53:45;7.27;;;1.70;;
5117;SDS011;2578;51.622;7.046;2022-08-21T01:56:12;7.13;;;1.60;;
5117;SDS011;2578;51.622;7.046;2022-08-21T01:58:40;7.20;;;1.60;;
5117;SDS011;2578;51.622;7.046;2022-08-21T02:01:06;7.27;;;1.60;;
5117;SDS011;2578;51.622;7.046;2022-08-21T02:03:32;7.27;;;1.70;;
5117;SDS011;2578;51.622;7.046;2022-08-21T02:05:58;7.25;;;1.80;;
5117;SDS011;2578;51.622;7.046;2022-08-21T02:08:24;7.27;;;1.80;;
5117;SDS011;2578;51.622;7.046;2022-08-21T02:10:50;7.23;;;1.70;;
5117;SDS011;2578;51.622;7.046;2022-08-21T02:13:17;7.30;;;1.70;;
5117;SDS011;2578;51.622;7.046;2022-08-21T02:15:43;7.23;;;1.60;;
5117;SDS011;2578;51.622;7.046;2022-08-21T02:18:09;7.30;;;1.60;;
5117;SDS011;2578;51.622;7.046;2022-08-21T02:20:39;7.03;;;1.60;;
5117;SDS011;2578;51.622;7.046;2022-08-21T02:23:07;6.80;;;1.60;;
5117;SDS011;2578;51.622;7.046;2022-08-21T02:25:34;7.27;;;1.70;;
5117;SDS011;2578;51.622;7.046;2022-08-21T02:28:02;7.28;;;1.80;;
5117;SDS011;2578;51.622;7.046;2022-08-21T02:30:34;7.03;;;1.70;;
5117;SDS011;2578;51.622;7.046;2022-08-21T02:33:03;7.27;;;1.70;;
5117;SDS011;2578;51.622;7.046;2022-08-21T02:35:29;7.10;;;1.70;;
5117;SDS011;2578;51.622;7.046;2022-08-21T02:37:56;7.30;;;1.70;;
5117;SDS011;2578;51.622;7.046;2022-08-21T02:40:24;7.37;;;1.60;;
5117;SDS011;2578;51.622;7.046;2022-08-21T02:42:52;7.30;;;1.70;;
5117;SDS011;2578;51.622;7.046;2022-08-21T02:45:18;7.32;;;1.75;;
5117;SDS011;2578;51.622;7.046;2022-08-21T02:47:51;7.22;;;1.80;;
5117;SDS011;2578;51.622;7.046;2022-08-21T02:50:20;7.30;;;1.70;;
5117;SDS011;2578;51.622;7.046;2022-08-21T02:52:57;7.25;;;1.73;;
5117;SDS011;2578;51.622;7.046;2022-08-21T02:55:24;7.30;;;1.70;;
5117;SDS011;2578;51.622;7.046;2022-08-21T02:57:51;7.40;;;1.80;;
5117;SDS011;2578;51.622;7.046;2022-08-21T03:00:18;7.33;;;1.60;;
5117;SDS011;2578;51.622;7.046;2022-08-21T03:02:45;7.40;;;1.73;;
5117;SDS011;2578;51.622;7.046;2022-08-21T03:05:11;7.43;;;1.70;;
5117;SDS011;2578;51.622;7.046;2022-08-21T03:07:40;7.13;;;1.70;;
5117;SDS011;2578;51.622;7.046;2022-08-21T03:10:06;7.40;;;1.70;;
5117;SDS011;2578;51.622;7.046;2022-08-21T03:12:32;7.40;;;1.67;;
5117;SDS011;2578;51.622;7.046;2022-08-21T03:15:00;7.40;;;1.70;;
5117;SDS011;2578;51.622;7.046;2022-08-21T03:17:28;7.30;;;1.60;;
5117;SDS011;2578;51.622;7.046;2022-08-21T03:19:53;7.17;;;1.60;;
5117;SDS011;2578;51.622;7.046;2022-08-21T03:22:19;7.30;;;1.60;;
5117;SDS011;2578;51.622;7.046;2022-08-21T03:24:45;7.30;;;1.60;;
5117;SDS011;2578;51.622;7.046;2022-08-21T03:27:10;7.23;;;1.50;;
5117;SDS011;2578;51.622;7.046;2022-08-21T03:29:38;7.17;;;1.40;;
5117;SDS011;2578;51.622;7.046;2022-08-21T03:32:04;7.27;;;1.40;;
5117;SDS011;2578;51.622;7.046;2022-08-21T03:34:32;7.27;;;1.50;;
5117;SDS011;2578;51.622;7.046;2022-08-21T03:36:57;7.32;;;1.50;;
5117;SDS011;2578;51.622;7.046;2022-08-21T03:39:23;7.15;;;1.50;;
5117;SDS011;2578;51.622;7.046;2022-08-21T03:41:49;7.22;;;1.60;;
5117;SDS011;2578;51.622;7.046;2022-08-21T03:44:14;7.30;;;1.60;;
5117;SDS011;2578;51.622;7.046;2022-08-21T03:46:40;7.60;;;1.97;;
5117;SDS011;2578;51.622;7.046;2022-08-21T03:49:06;7.43;;;1.60;;
5117;SDS011;2578;51.622;7.046;2022-08-21T03:51:32;7.47;;;1.70;;
5117;SDS011;2578;51.622;7.046;2022-08-21T03:53:58;7.47;;;1.70;;
5117;SDS011;2578;51.622;7.046;2022-08-21T03:56:24;7.47;;;1.80;;
5117;SDS011;2578;51.622;7.046;2022-08-21T03:58:50;7.17;;;1.70;;
5117;SDS011;2578;51.622;7.046;2022-08-21T04:01:15;7.47;;;1.70;;
5117;SDS011;2578;51.622;7.046;2022-08-21T04:03:41;7.33;;;1.80;;
5117;SDS011;2578;51.622;7.046;2022-08-21T04:06:07;7.50;;;1.80;;
5117;SDS011;2578;51.622;7.046;2022-08-21T04:08:33;7.53;;;1.70;;
5117;SDS011;2578;51.622;7.046;2022-08-21T04:11:00;7.47;;;1.83;;
5117;SDS011;2578;51.622;7.046;2022-08-21T04:13:26;7.57;;;1.90;;
5117;SDS011;2578;51.622;7.046;2022-08-21T04:15:53;7.50;;;1.87;;
5117;SDS011;2578;51.622;7.046;2022-08-21T04:18:19;7.47;;;1.70;;
5117;SDS011;2578;51.622;7.046;2022-08-21T04:20:46;7.60;;;1.80;;
5117;SDS011;2578;51.622;7.046;2022-08-21T04:23:14;7.47;;;1.90;;
5117;SDS011;2578;51.622;7.046;2022-08-21T04:25:40;7.53;;;1.90;;
5117;SDS011;2578;51.622;7.046;2022-08-21T04:28:06;7.60;;;1.80;;
5117;SDS011;2578;51.622;7.046;2022-08-21T04:30:31;7.60;;;1.70;;
5117;SDS011;2578;51.622;7.046;2022-08-21T04:32:57;7.53;;;2.00;;
5117;SDS011;2578;51.622;7.046;2022-08-21T04:35:24;7.63;;;2.00;;
5117;SDS011;2578;51.622;7.046;2022-08-21T04:37:51;7.63;;;2.10;;
5117;SDS011;2578;51.622;7.046;2022-08-21T04:40:18;7.60;;;1.90;;
5117;SDS011;2578;51.622;7.046;2022-08-21T04:42:49;7.63;;;1.90;;
5117;SDS011;2578;51.622;7.046;2022-08-21T04:45:21;7.70;;;1.80;;
5117;SDS011;2578;51.622;7.046;2022-08-21T04:47:50;7.60;;;1.80;;
5117;SDS011;2578;51.622;7.046;2022-08-21T04:50:18;7.57;;;1.80;;
5117;SDS011;2578;51.622;7.046;2022-08-21T04:52:44;7.50;;;1.60;;
5117;SDS011;2578;51.622;7.046;2022-08-21T04:55:11;7.43;;;1.60;;
5117;SDS011;2578;51.622;7.046;2022-08-21T04:57:37;7.47;;;1.70;;
5117;SDS011;2578;51.622;7.046;2022-08-21T05:00:04;7.40;;;1.65;;
5117;SDS011;2578;51.622;7.046;2022-08-21T05:02:31;7.35;;;1.80;;
5117;SDS011;2578;51.622;7.046;2022-08-21T05:04:58;7.37;;;1.60;;
5117;SDS011;2578;51.622;7.046;2022-08-21T05:07:24;7.50;;;1.77;;
5117;SDS011;2578;51.622;7.046;2022-08-21T05:09:53;7.43;;;1.70;;
5117;SDS011;2578;51.622;7.046;2022-08-21T05:12:19;7.53;;;1.70;;
5117;SDS011;2578;51.622;7.046;2022-08-21T05:14:45;7.60;;;1.70;;
5117;SDS011;2578;51.622;7.046;2022-08-21T05:17:12;7.47;;;1.50;;
5117;SDS011;2578;51.622;7.046;2022-08-21T05:19:37;7.57;;;1.67;;
5117;SDS011;2578;51.622;7.046;2022-08-21T05:22:03;7.53;;;1.60;;
5117;SDS011;2578;51.622;7.046;2022-08-21T05:24:29;7.38;;;1.60;;
5117;SDS011;2578;51.622;7.046;2022-08-21T05:26:55;7.38;;;1.60;;
5117;SDS011;2578;51.622;7.046;2022-08-21T05:29:21;7.07;;;1.40;;
5117;SDS011;2578;51.622;7.046;2022-08-21T05:31:47;7.27;;;1.30;;
5117;SDS011;2578;51.622;7.046;2022-08-21T05:34:14;7.20;;;1.17;;
5117;SDS011;2578;51.622;7.046;2022-08-21T05:36:43;7.20;;;1.00;;
5117;SDS011;2578;51.622;7.046;2022-08-21T05:39:09;7.10;;;0.90;;
5117;SDS011;2578;51.622;7.046;2022-08-21T05:41:34;13.10;;;3.83;;
5117;SDS011;2578;51.622;7.046;2022-08-21T05:44:00;7.07;;;0.80;;
5117;SDS011;2578;51.622;7.046;2022-08-21T05:46:26;7.03;;;0.87;;
5117;SDS011;2578;51.622;7.046;2022-08-21T05:48:52;7.03;;;1.00;;
5117;SDS011;2578;51.622;7.046;2022-08-21T05:51:17;7.03;;;1.10;;
5117;SDS011;2578;51.622;7.046;2022-08-21T05:53:43;8.93;;;1.47;;
5117;SDS011;2578;51.622;7.046;2022-08-21T05:56:10;7.07;;;1.20;;
5117;SDS011;2578;51.622;7.046;2022-08-21T05:58:36;7.70;;;2.03;;
5117;SDS011;2578;51.622;7.046;2022-08-21T06:01:03;9.33;;;2.83;;
5117;SDS011;2578;51.622;7.046;2022-08-21T06:03:32;8.40;;;2.00;;
5117;SDS011;2578;51.622;7.046;2022-08-21T06:06:00;7.05;;;1.70;;
5117;SDS011;2578;51.622;7.046;2022-08-21T06:08:26;7.55;;;2.50;;
5117;SDS011;2578;51.622;7.046;2022-08-21T06:10:53;7.20;;;2.20;;
5117;SDS011;2578;51.622;7.046;2022-08-21T06:13:20;8.60;;;3.43;;
5117;SDS011;2578;51.622;7.046;2022-08-21T06:15:47;7.23;;;2.40;;
5117;SDS011;2578;51.622;7.046;2022-08-21T06:18:14;7.60;;;3.07;;
5117;SDS011;2578;51.622;7.046;2022-08-21T06:20:40;7.87;;;3.80;;
5117;SDS011;2578;51.622;7.046;2022-08-21T06:23:06;7.55;;;3.60;;
5117;SDS011;2578;51.622;7.046;2022-08-21T06:25:32;8.13;;;5.13;;
5117;SDS011;2578;51.622;7.046;2022-08-21T06:28:06;8.10;;;5.10;;
5117;SDS011;2578;51.622;7.046;2022-08-21T06:30:33;8.37;;;5.80;;
5117;SDS011;2578;51.622;7.046;2022-08-21T06:32:59;9.13;;;7.90;;
5117;SDS011;2578;51.622;7.046;2022-08-21T06:35:25;10.52;;;9.52;;
5117;SDS011;2578;51.622;7.046;2022-08-21T06:37:51;11.20;;;10.10;;
5117;SDS011;2578;51.622;7.046;2022-08-21T06:40:17;12.20;;;11.03;;
5117;SDS011;2578;51.622;7.046;2022-08-21T06:42:42;12.37;;;11.17;;
5117;SDS011;2578;51.622;7.046;2022-08-21T06:45:08;13.93;;;12.63;;
5117;SDS011;2578;51.622;7.046;2022-08-21T06:47:35;15.03;;;13.63;;
5117;SDS011;2578;51.622;7.046;2022-08-21T06:50:00;15.40;;;14.00;;
5117;SDS011;2578;51.622;7.046;2022-08-21T06:52:27;15.38;;;13.98;;
5117;SDS011;2578;51.622;7.046;2022-08-21T06:54:52;16.43;;;14.93;;
5117;SDS011;2578;51.622;7.046;2022-08-21T06:57:18;15.77;;;14.37;;
5117;SDS011;2578;51.622;7.046;2022-08-21T06:59:44;15.60;;;14.20;;
5117;SDS011;2578;51.622;7.046;2022-08-21T07:02:09;16.73;;;15.23;;
5117;SDS011;2578;51.622;7.046;2022-08-21T07:04:35;18.53;;;16.70;;
5117;SDS011;2578;51.622;7.046;2022-08-21T07:07:01;17.17;;;15.67;;
5117;SDS011;2578;51.622;7.046;2022-08-21T07:09:27;17.20;;;15.60;;
5117;SDS011;2578;51.622;7.046;2022-08-21T07:11:53;18.00;;;16.40;;
5117;SDS011;2578;51.622;7.046;2022-08-21T07:14:20;18.30;;;16.60;;
5117;SDS011;2578;51.622;7.046;2022-08-21T07:16:47;18.70;;;17.00;;
5117;SDS011;2578;51.622;7.046;2022-08-21T07:19:13;19.10;;;17.40;;
5117;SDS011;2578;51.622;7.046;2022-08-21T07:21:39;19.20;;;17.50;;
5117;SDS011;2578;51.622;7.046;2022-08-21T07:24:04;21.70;;;19.70;;
5117;SDS011;2578;51.622;7.046;2022-08-21T07:26:30;20.00;;;18.20;;
5117;SDS011;2578;51.622;7.046;2022-08-21T07:28:56;20.73;;;18.93;;
5117;SDS011;2578;51.622;7.046;2022-08-21T07:31:22;21.20;;;19.30;;
5117;SDS011;2578;51.622;7.046;2022-08-21T07:33:49;20.93;;;19.03;;
5117;SDS011;2578;51.622;7.046;2022-08-21T07:36:15;20.70;;;18.80;;
5117;SDS011;2578;51.622;7.046;2022-08-21T07:38:41;22.23;;;20.05;;
5117;SDS011;2578;51.622;7.046;2022-08-21T07:41:13;20.53;;;18.67;;
5117;SDS011;2578;51.622;7.046;2022-08-21T07:43:45;22.00;;;19.90;;
5117;SDS011;2578;51.622;7.046;2022-08-21T07:46:12;21.30;;;19.30;;
5117;SDS011;2578;51.622;7.046;2022-08-21T07:48:41;20.35;;;18.45;;
5117;SDS011;2578;51.622;7.046;2022-08-21T07:51:09;20.30;;;18.40;;
5117;SDS011;2578;51.622;7.046;2022-08-21T07:53:37;20.30;;;18.40;;
5117;SDS011;2578;51.622;7.046;2022-08-21T07:56:04;19.55;;;17.75;;
5117;SDS011;2578;51.622;7.046;2022-08-21T07:58:31;19.80;;;18.00;;
5117;SDS011;2578;51.622;7.046;2022-08-21T08:00:57;19.80;;;18.00;;
5117;SDS011;2578;51.622;7.046;2022-08-21T08:03:23;19.30;;;17.50;;
5117;SDS011;2578;51.622;7.046;2022-08-21T08:05:49;19.87;;;17.97;;
5117;SDS011;2578;51.622;7.046;2022-08-21T08:08:17;19.80;;;17.90;;
5117;SDS011;2578;51.622;7.046;2022-08-21T08:10:50;19.70;;;17.90;;
5117;SDS011;2578;51.622;7.046;2022-08-21T08:13:25;19.83;;;18.00;;
5117;SDS011;2578;51.622;7.046;2022-08-21T08:16:10;20.57;;;18.57;;
5117;SDS011;2578;51.622;7.046;2022-08-21T08:18:35;20.10;;;18.30;;
5117;SDS011;2578;51.622;7.046;2022-08-21T08:21:01;20.57;;;18.67;;
5117;SDS011;2578;51.622;7.046;2022-08-21T08:23:27;20.80;;;18.83;;
5117;SDS011;2578;51.622;7.046;2022-08-21T08:25:55;21.10;;;19.10;;
5117;SDS011;2578;51.622;7.046;2022-08-21T08:28:21;21.10;;;19.00;;
5117;SDS011;2578;51.622;7.046;2022-08-21T08:30:47;21.67;;;19.40;;
5117;SDS011;2578;51.622;7.046;2022-08-21T08:33:13;20.40;;;18.50;;
5117;SDS011;2578;51.622;7.046;2022-08-21T08:35:39;21.33;;;19.33;;
5117;SDS011;2578;51.622;7.046;2022-08-21T08:38:07;22.47;;;20.17;;
5117;SDS011;2578;51.622;7.046;2022-08-21T08:40:40;21.20;;;19.20;;
5117;SDS011;2578;51.622;7.046;2022-08-21T08:43:11;21.53;;;19.43;;
5117;SDS011;2578;51.622;7.046;2022-08-21T08:45:37;22.20;;;20.10;;
5117;SDS011;2578;51.622;7.046;2022-08-21T08:48:09;21.45;;;19.40;;
5117;SDS011;2578;51.622;7.046;2022-08-21T08:53:23;22.10;;;20.00;;
5117;SDS011;2578;51.622;7.046;2022-08-21T08:55:59;22.87;;;20.57;;
5117;SDS011;2578;51.622;7.046;2022-08-21T08:58:28;22.77;;;20.57;;
5117;SDS011;2578;51.622;7.046;2022-08-21T09:00:57;22.80;;;20.60;;
5117;SDS011;2578;51.622;7.046;2022-08-21T09:03:23;22.87;;;20.67;;
5117;SDS011;2578;51.622;7.046;2022-08-21T09:08:36;22.60;;;20.40;;
5117;SDS011;2578;51.622;7.046;2022-08-21T09:11:21;23.42;;;21.20;;
5117;SDS011;2578;51.622;7.046;2022-08-21T09:20:11;25.77;;;23.47;;
5117;SDS011;2578;51.622;7.046;2022-08-21T09:25:15;25.80;;;23.30;;
5117;SDS011;2578;51.622;7.046;2022-08-21T09:27:46;25.60;;;23.20;;
5117;SDS011;2578;51.622;7.046;2022-08-21T09:30:11;25.73;;;23.23;;
5117;SDS011;2578;51.622;7.046;2022-08-21T09:32:38;27.83;;;25.23;;
5117;SDS011;2578;51.622;7.046;2022-08-21T09:37:35;29.20;;;26.70;;
5117;SDS011;2578;51.622;7.046;2022-08-21T09:40:32;28.80;;;26.23;;
5117;SDS011;2578;51.622;7.046;2022-08-21T09:43:02;29.60;;;27.00;;
5117;SDS011;2578;51.622;7.046;2022-08-21T09:45:34;27.77;;;25.17;;
5117;SDS011;2578;51.622;7.046;2022-08-21T09:48:20;27.50;;;24.90;;
5117;SDS011;2578;51.622;7.046;2022-08-21T09:50:48;27.00;;;24.40;;
5117;SDS011;2578;51.622;7.046;2022-08-21T09:53:22;27.60;;;24.93;;
5117;SDS011;2578;51.622;7.046;2022-08-21T09:58:41;24.80;;;22.60;;
5117;SDS011;2578;51.622;7.046;2022-08-21T10:01:15;25.20;;;22.80;;
5117;SDS011;2578;51.622;7.046;2022-08-21T10:03:43;28.60;;;23.93;;
5117;SDS011;2578;51.622;7.046;2022-08-21T10:06:19;26.03;;;23.57;;
5117;SDS011;2578;51.622;7.046;2022-08-21T10:08:47;27.20;;;24.70;;
5117;SDS011;2578;51.622;7.046;2022-08-21T10:11:14;24.90;;;22.50;;
5117;SDS011;2578;51.622;7.046;2022-08-21T10:16:38;25.17;;;22.67;;
5117;SDS011;2578;51.622;7.046;2022-08-21T10:24:52;24.63;;;22.23;;
5117;SDS011;2578;51.622;7.046;2022-08-21T10:30:15;25.20;;;22.70;;
5117;SDS011;2578;51.622;7.046;2022-08-21T10:38:42;26.30;;;23.70;;
5117;SDS011;2578;51.622;7.046;2022-08-21T10:41:28;25.90;;;23.40;;
5117;SDS011;2578;51.622;7.046;2022-08-21T10:52:28;26.20;;;23.60;;
5117;SDS011;2578;51.622;7.046;2022-08-21T10:55:11;26.60;;;23.90;;
5117;SDS011;2578;51.622;7.046;2022-08-21T10:57:44;25.83;;;23.33;;
5117;SDS011;2578;51.622;7.046;2022-08-21T11:00:20;27.87;;;25.17;;
5117;SDS011;2578;51.622;7.046;2022-08-21T11:02:51;26.17;;;23.60;;
5117;SDS011;2578;51.622;7.046;2022-08-21T11:05:33;26.13;;;23.50;;
5117;SDS011;2578;51.622;7.046;2022-08-21T11:08:10;26.43;;;23.77;;
5117;SDS011;2578;51.622;7.046;2022-08-21T11:11:04;26.00;;;23.50;;
5117;SDS011;2578;51.622;7.046;2022-08-21T11:13:41;25.47;;;22.97;;
5117;SDS011;2578;51.622;7.046;2022-08-21T11:19:09;26.10;;;23.60;;
5117;SDS011;2578;51.622;7.046;2022-08-21T11:21:49;26.83;;;24.23;;
5117;SDS011;2578;51.622;7.046;2022-08-21T11:29:58;26.50;;;24.00;;
5117;SDS011;2578;51.622;7.046;2022-08-21T11:38:33;26.17;;;23.67;;
5117;SDS011;2578;51.622;7.046;2022-08-21T11:43:34;26.63;;;24.13;;
5117;SDS011;2578;51.622;7.046;2022-08-21T11:46:13;25.87;;;23.37;;
5117;SDS011;2578;51.622;7.046;2022-08-21T11:51:51;26.33;;;23.83;;
5117;SDS011;2578;51.622;7.046;2022-08-21T11:54:31;26.13;;;23.53;;
5117;SDS011;2578;51.622;7.046;2022-08-21T12:02:45;26.20;;;23.60;;
5117;SDS011;2578;51.622;7.046;2022-08-21T12:05:25;26.70;;;24.10;;
5117;SDS011;2578;51.622;7.046;2022-08-21T12:08:05;26.70;;;24.00;;
5117;SDS011;2578;51.622;7.046;2022-08-21T12:10:37;26.10;;;23.50;;
5117;SDS011;2578;51.622;7.046;2022-08-21T12:16:04;26.57;;;23.97;;
5117;SDS011;2578;51.622;7.046;2022-08-21T12:18:34;26.50;;;24.00;;
5117;SDS011;2578;51.622;7.046;2022-08-21T12:24:03;26.83;;;24.13;;
5117;SDS011;2578;51.622;7.046;2022-08-21T12:31:56;27.07;;;24.47;;
5117;SDS011;2578;51.622;7.046;2022-08-21T12:34:23;27.07;;;24.47;;
5117;SDS011;2578;51.622;7.046;2022-08-21T12:36:57;26.73;;;24.03;;
5117;SDS011;2578;51.622;7.046;2022-08-21T12:39:33;26.80;;;24.20;;
5117;SDS011;2578;51.622;7.046;2022-08-21T12:42:19;26.60;;;24.00;;
5117;SDS011;2578;51.622;7.046;2022-08-21T12:44:48;26.50;;;23.80;;
5117;SDS011;2578;51.622;7.046;2022-08-21T12:47:23;27.38;;;24.67;;
5117;SDS011;2578;51.622;7.046;2022-08-21T12:49:52;27.03;;;24.33;;
5117;SDS011;2578;51.622;7.046;2022-08-21T12:52:51;27.02;;;24.33;;
5117;SDS011;2578;51.622;7.046;2022-08-21T12:55:45;26.63;;;23.93;;
5117;SDS011;2578;51.622;7.046;2022-08-21T12:58:23;27.30;;;24.60;;
5117;SDS011;2578;51.622;7.046;2022-08-21T13:00:50;27.10;;;24.40;;
5117;SDS011;2578;51.622;7.046;2022-08-21T13:03:23;27.50;;;24.80;;
5117;SDS011;2578;51.622;7.046;2022-08-21T13:05:50;27.67;;;24.97;;
5117;SDS011;2578;51.622;7.046;2022-08-21T13:08:18;27.87;;;25.17;;
5117;SDS011;2578;51.622;7.046;2022-08-21T13:10:46;27.40;;;24.70;;
5117;SDS011;2578;51.622;7.046;2022-08-21T13:13:17;26.00;;;23.40;;
5117;SDS011;2578;51.622;7.046;2022-08-21T13:15:46;25.87;;;23.27;;
5117;SDS011;2578;51.622;7.046;2022-08-21T13:18:22;26.00;;;23.40;;
5117;SDS011;2578;51.622;7.046;2022-08-21T13:20:49;25.47;;;22.90;;
5117;SDS011;2578;51.622;7.046;2022-08-21T13:25:45;25.80;;;23.20;;
5117;SDS011;2578;51.622;7.046;2022-08-21T13:28:11;25.50;;;22.90;;
5117;SDS011;2578;51.622;7.046;2022-08-21T13:31:00;25.67;;;23.07;;
5117;SDS011;2578;51.622;7.046;2022-08-21T13:33:26;27.50;;;24.80;;
5117;SDS011;2578;51.622;7.046;2022-08-21T13:38:22;27.00;;;24.30;;
5117;SDS011;2578;51.622;7.046;2022-08-21T13:40:57;26.50;;;23.90;;
5117;SDS011;2578;51.622;7.046;2022-08-21T13:43:32;27.50;;;24.80;;
5117;SDS011;2578;51.622;7.046;2022-08-21T13:46:00;27.30;;;24.60;;
5117;SDS011;2578;51.622;7.046;2022-08-21T13:48:32;27.10;;;24.47;;
5117;SDS011;2578;51.622;7.046;2022-08-21T13:50:59;26.70;;;24.10;;
5117;SDS011;2578;51.622;7.046;2022-08-21T13:56:02;25.90;;;23.30;;
5117;SDS011;2578;51.622;7.046;2022-08-21T13:58:45;26.00;;;23.40;;
5117;SDS011;2578;51.622;7.046;2022-08-21T14:01:18;26.60;;;23.93;;
5117;SDS011;2578;51.622;7.046;2022-08-21T14:03:47;27.07;;;24.37;;
5117;SDS011;2578;51.622;7.046;2022-08-21T14:06:20;27.00;;;24.30;;
5117;SDS011;2578;51.622;7.046;2022-08-21T14:08:49;27.40;;;24.77;;
5117;SDS011;2578;51.622;7.046;2022-08-21T14:11:21;26.23;;;23.73;;
5117;SDS011;2578;51.622;7.046;2022-08-21T14:13:57;26.00;;;23.50;;
5117;SDS011;2578;51.622;7.046;2022-08-21T14:16:28;26.10;;;23.60;;
5117;SDS011;2578;51.622;7.046;2022-08-21T14:19:11;26.00;;;23.50;;
5117;SDS011;2578;51.622;7.046;2022-08-21T14:21:46;25.57;;;23.07;;
5117;SDS011;2578;51.622;7.046;2022-08-21T14:27:01;26.10;;;23.60;;
5117;SDS011;2578;51.622;7.046;2022-08-21T14:29:28;25.40;;;23.00;;
5117;SDS011;2578;51.622;7.046;2022-08-21T14:32:08;24.80;;;22.40;;
5117;SDS011;2578;51.622;7.046;2022-08-21T14:34:40;25.80;;;23.40;;
5117;SDS011;2578;51.622;7.046;2022-08-21T14:37:05;24.50;;;22.20;;
5117;SDS011;2578;51.622;7.046;2022-08-21T14:39:31;26.13;;;23.63;;
5117;SDS011;2578;51.622;7.046;2022-08-21T14:41:57;25.70;;;23.30;;
5117;SDS011;2578;51.622;7.046;2022-08-21T14:44:24;26.20;;;23.70;;
5117;SDS011;2578;51.622;7.046;2022-08-21T14:46:50;26.17;;;23.67;;
5117;SDS011;2578;51.622;7.046;2022-08-21T14:49:16;25.80;;;23.30;;
5117;SDS011;2578;51.622;7.046;2022-08-21T14:51:41;26.50;;;23.90;;
5117;SDS011;2578;51.622;7.046;2022-08-21T14:54:07;26.50;;;23.90;;
5117;SDS011;2578;51.622;7.046;2022-08-21T14:56:33;26.10;;;23.50;;
5117;SDS011;2578;51.622;7.046;2022-08-21T14:59:04;26.20;;;23.60;;
5117;SDS011;2578;51.622;7.046;2022-08-21T15:01:32;28.10;;;25.30;;
5117;SDS011;2578;51.622;7.046;2022-08-21T15:04:01;26.50;;;23.90;;
5117;SDS011;2578;51.622;7.046;2022-08-21T15:06:26;26.87;;;24.17;;
5117;SDS011;2578;51.622;7.046;2022-08-21T15:08:52;26.40;;;23.80;;
5117;SDS011;2578;51.622;7.046;2022-08-21T15:11:19;26.77;;;24.07;;
5117;SDS011;2578;51.622;7.046;2022-08-21T15:13:46;27.43;;;24.20;;
5117;SDS011;2578;51.622;7.046;2022-08-21T15:16:15;26.10;;;23.60;;
5117;SDS011;2578;51.622;7.046;2022-08-21T15:18:41;26.67;;;24.10;;
5117;SDS011;2578;51.622;7.046;2022-08-21T15:21:07;26.60;;;24.00;;
5117;SDS011;2578;51.622;7.046;2022-08-21T15:23:33;26.83;;;24.23;;
5117;SDS011;2578;51.622;7.046;2022-08-21T15:25:59;27.60;;;24.90;;
5117;SDS011;2578;51.622;7.046;2022-08-21T15:28:25;27.70;;;25.00;;
5117;SDS011;2578;51.622;7.046;2022-08-21T15:30:51;27.17;;;24.57;;
5117;SDS011;2578;51.622;7.046;2022-08-21T15:33:17;25.60;;;23.10;;
5117;SDS011;2578;51.622;7.046;2022-08-21T15:35:43;25.45;;;22.95;;
5117;SDS011;2578;51.622;7.046;2022-08-21T15:38:11;25.10;;;22.60;;
5117;SDS011;2578;51.622;7.046;2022-08-21T15:40:37;25.10;;;22.60;;
5117;SDS011;2578;51.622;7.046;2022-08-21T15:43:04;26.30;;;23.80;;
5117;SDS011;2578;51.622;7.046;2022-08-21T15:45:30;25.60;;;23.10;;
5117;SDS011;2578;51.622;7.046;2022-08-21T15:47:57;27.93;;;25.33;;
5117;SDS011;2578;51.622;7.046;2022-08-21T15:50:24;28.60;;;25.90;;
5117;SDS011;2578;51.622;7.046;2022-08-21T15:52:51;28.83;;;26.13;;
5117;SDS011;2578;51.622;7.046;2022-08-21T15:55:17;28.70;;;26.00;;
5117;SDS011;2578;51.622;7.046;2022-08-21T15:57:44;28.20;;;25.60;;
5117;SDS011;2578;51.622;7.046;2022-08-21T16:00:13;28.07;;;25.47;;
5117;SDS011;2578;51.622;7.046;2022-08-21T16:02:47;28.73;;;26.03;;
5117;SDS011;2578;51.622;7.046;2022-08-21T16:05:14;28.70;;;26.00;;
5117;SDS011;2578;51.622;7.046;2022-08-21T16:07:44;29.63;;;26.93;;
5117;SDS011;2578;51.622;7.046;2022-08-21T16:10:10;27.67;;;25.07;;
5117;SDS011;2578;51.622;7.046;2022-08-21T16:12:39;28.40;;;25.80;;
5117;SDS011;2578;51.622;7.046;2022-08-21T16:15:11;29.67;;;26.97;;
5117;SDS011;2578;51.622;7.046;2022-08-21T16:17:40;28.83;;;26.17;;
5117;SDS011;2578;51.622;7.046;2022-08-21T16:20:09;28.67;;;26.07;;
5117;SDS011;2578;51.622;7.046;2022-08-21T16:22:37;28.87;;;26.27;;
5117;SDS011;2578;51.622;7.046;2022-08-21T16:25:03;25.93;;;23.53;;
5117;SDS011;2578;51.622;7.046;2022-08-21T16:27:30;25.30;;;22.90;;
5117;SDS011;2578;51.622;7.046;2022-08-21T16:29:56;25.50;;;23.10;;
5117;SDS011;2578;51.622;7.046;2022-08-21T16:32:22;24.80;;;22.40;;
5117;SDS011;2578;51.622;7.046;2022-08-21T16:34:49;24.50;;;22.10;;
5117;SDS011;2578;51.622;7.046;2022-08-21T16:37:15;25.20;;;22.80;;
5117;SDS011;2578;51.622;7.046;2022-08-21T16:39:42;24.23;;;21.92;;
5117;SDS011;2578;51.622;7.046;2022-08-21T16:42:09;25.00;;;22.60;;